TAF LFPB
LFPB 090500Z 0906/1006 22010KT CAVOK BECMG 0915/0917 BKN012 BECMG 0920/0922 20015G25KT TEMPO 0921/1004 4000 -RA BKN006 FEW008TCU PROB30 TEMPO 0921/0924 2000 RA BKN004 BECMG 1004/1006 26020G30KT BKN020 PROB40 TEMPO 1005/1006 27020G35KT 4000 -SHRA SCT014TCU=
METAR LFPB
LFPB 090930Z AUTO 23011KT 9999 SCT039 SCT060 BKN160 05/02 Q1008 NOSIG=
LFPB 090900Z AUTO 24009KT CAVOK 05/01 Q1007 NOSIG=
LFPB 090830Z AUTO 23011KT CAVOK 05/01 Q1007 NOSIG=
LFPB 090800Z AUTO 23007KT 210V270 CAVOK 04/01 Q1007 NOSIG=
LFPB 090730Z AUTO 22010KT CAVOK 04/01 Q1007 NOSIG=
WC LFPB
WS LFPB
WV LFPB